Aviation Digital Data Service (ADDS)

Output produced by METARs form (1456 UTC 25 January 2020)
found at http://www.aviationweather.gov/metar/data/
 
TAPA 251400Z VRB02KT 9999 FEW020 BKN038 27/22 Q1017 NOSIG
TAPA 251300Z VRB02KT 9999 FEW020 BKN036 25/23 Q1016 NOSIG
TAPA 251200Z VRB02KT 9999 FEW024 BKN036 23/22 Q1016 NOSIG
TAPA 251100Z VRB01KT 9999 FEW024 BKN038 22/21 Q1015 NOSIG
TAF TAPA 251100Z 2512/2612 VRB03KT 9999 SCT018 
     PROB30 
     TEMPO 2512/2612 SHRA
       
TRPG 251400Z 00000KT 9999 FEW015 24/22 Q1018
TRPG 251300Z 00000KT 9999 FEW010 BKN042 24/21 Q1018
TRPG 251200Z 00000KT 9999 FEW010 BKN042 24/22 Q1017
TRPG 251100Z 12004KT 9999 FEW010 BKN042 23/22 Q1016
TAF TRPG 251100Z 2512/2612 19005KT 9999 SCT018 
     PROB30 
     TEMPO 2512/2612 SHRA
       
TKPK 251400Z 05006KT 9999 SCT022 27/23 Q1016
TKPK 251300Z 06004KT 9999 FEW022 27/23 Q1016
TKPK 251200Z 35004KT 9999 FEW022 24/23 Q1015
TKPK 251100Z 35004KT 9999 FEW022 23/21 Q1015
TKPK 251140Z 2512/2612 VRB06KT P6SM FEW020 SCT030 
     FM251600 VRB04KT P6SM FEW020 SCT030 
     FM251900 VRB05KT P6SM SCT020 BKN030 AMD NOT SKED 2602/2611
       
TKPN 251400Z 11006KT 9999 FEW020 27/22 Q1016
TKPN 251300Z 10006KT 9999 FEW018 26/23 Q1016
TKPN 251200Z 00000KT 9999 FEW018 SCT050 24/22 Q1015
TKPN 251100Z 16005KT 9999 FEW018 23/22 Q1014
TAF TKPN 251100Z 2512/2612 VRB03KT 9999 SCT018 
     PROB30 
     TEMPO 2512/2612 SHRA
       
TQPF 251400Z 05006KT 9999 FEW021 27/21 Q1017
TQPF 251300Z 03005KT 9999 FEW020 26/22 Q1017
TQPF 251200Z 01004KT 9999 FEW020 24/21 Q1016
TQPF 251100Z 01003KT 9999 FEW020 22/20 Q1015
TAF TQPF 251100Z 2512/2612 05004KT 9999 SCT018 
     PROB30 
     TEMPO 2512/2612 SHRA
       
TUPJ 251400Z VRB03KT 10SM FEW017 SCT035 27/20 A3003 RMK Q1017
TUPJ 251300Z VRB03KT 10SM FEW017 SCT035 26/22 A3002 RMK Q1016
TUPJ 251200Z 04003KT 10SM FEW017 SCT035 25/22 A3000 RMK Q1015
TUPJ 251100Z VRB02KT 10SM SCT017 BKN035 23/21 A2998 RMK Q1015
TAF TUPJ 251100Z 2512/2612 05004KT 9999 SCT018 
     PROB30 
     TEMPO 2512/2612 SHRA